Aviation Digital Data Service (ADDS)

Output produced by METARs form (1056 UTC 07 December 2022)
found at http://www.aviationweather.gov/metar/data/
 
METAR text: RJAF 070900Z 19017KT 9999 FEW020 SCT030 BKN070 06/M03 Q1015
Conditions at: RJAF (MATSUMOTO AIRPOR, JP) observed 0900 UTC 07 December 2022
Temperature: 6.0°C (43°F)
Dewpoint: -3.0°C (27°F) [RH = 52%]
Pressure (altimeter): 29.97 inches Hg (1015.0 mb)
Winds: from the S (190 degrees) at 20 MPH (17 knots; 8.7 m/s)
Visibility: 6 or more miles (10+ km)
Ceiling: 7000 feet AGL
Clouds: few clouds at 2000 feet AGL
scattered clouds at 3000 feet AGL
broken clouds at 7000 feet AGL
Weather: no significant weather observed at this time

METAR text: RJAF 070800Z 21010KT 9999 SCT050 BKN/// 06/M04 Q1015
Conditions at: RJAF (MATSUMOTO AIRPOR, JP) observed 0800 UTC 07 December 2022
Temperature: 6.0°C (43°F)
Dewpoint: -4.0°C (25°F) [RH = 49%]
Pressure (altimeter): 29.97 inches Hg (1015.0 mb)
Winds: from the SSW (210 degrees) at 12 MPH (10 knots; 5.1 m/s)
Visibility: 6 or more miles (10+ km)
Ceiling: at least 12,000 feet AGL
Clouds: scattered clouds at 5000 feet AGL
Weather: no significant weather observed at this time

METAR text: RJAF 070700Z 23011KT 9999 FEW050 SCT060 BKN/// 07/M05 Q1014
Conditions at: RJAF (MATSUMOTO AIRPOR, JP) observed 0700 UTC 07 December 2022
Temperature: 7.0°C (45°F)
Dewpoint: -5.0°C (23°F) [RH = 42%]
Pressure (altimeter): 29.94 inches Hg (1014.0 mb)
Winds: from the SW (230 degrees) at 13 MPH (11 knots; 5.7 m/s)
Visibility: 6 or more miles (10+ km)
Ceiling: at least 12,000 feet AGL
Clouds: few clouds at 5000 feet AGL
scattered clouds at 6000 feet AGL
Weather: no significant weather observed at this time

METAR text: RJAF 070600Z 23013G23KT 9999 FEW040 SCT060 08/M07 Q1014
Conditions at: RJAF (MATSUMOTO AIRPOR, JP) observed 0600 UTC 07 December 2022
Temperature: 8.0°C (46°F)
Dewpoint: -7.0°C (19°F) [RH = 34%]
Pressure (altimeter): 29.94 inches Hg (1014.0 mb)
Winds: from the SW (230 degrees) at 15 MPH (13 knots; 6.7 m/s)
gusting to 26 MPH (23 knots; 11.8 m/s)
Visibility: 6 or more miles (10+ km)
Ceiling: at least 12,000 feet AGL
Clouds: few clouds at 4000 feet AGL
scattered clouds at 6000 feet AGL
Weather: no significant weather observed at this time

METAR text: RJAF 070500Z 25015G25KT 9999 FEW040 SCT060 08/M06 Q1014
Conditions at: RJAF (MATSUMOTO AIRPOR, JP) observed 0500 UTC 07 December 2022
Temperature: 8.0°C (46°F)
Dewpoint: -6.0°C (21°F) [RH = 36%]
Pressure (altimeter): 29.94 inches Hg (1014.0 mb)
Winds: from the WSW (250 degrees) at 17 MPH (15 knots; 7.7 m/s)
gusting to 29 MPH (25 knots; 12.9 m/s)
Visibility: 6 or more miles (10+ km)
Ceiling: at least 12,000 feet AGL
Clouds: few clouds at 4000 feet AGL
scattered clouds at 6000 feet AGL
Weather: no significant weather observed at this time

METAR text: RJAF 070400Z 24013KT 200V270 9999 FEW040 SCT060 09/M07 Q1013
Conditions at: RJAF (MATSUMOTO AIRPOR, JP) observed 0400 UTC 07 December 2022
Temperature: 9.0°C (48°F)
Dewpoint: -7.0°C (19°F) [RH = 32%]
Pressure (altimeter): 29.91 inches Hg (1013.0 mb)
Winds: from the WSW (240 degrees) at 15 MPH (13 knots; 6.7 m/s)
Visibility: 6 or more miles (10+ km)
Ceiling: at least 12,000 feet AGL
Clouds: few clouds at 4000 feet AGL
scattered clouds at 6000 feet AGL
Weather: no significant weather observed at this time

METAR text: RJAF 070300Z 24012KT 200V260 9999 FEW030 SCT060 10/M07 Q1014
Conditions at: RJAF (MATSUMOTO AIRPOR, JP) observed 0300 UTC 07 December 2022
Temperature: 10.0°C (50°F)
Dewpoint: -7.0°C (19°F) [RH = 29%]
Pressure (altimeter): 29.94 inches Hg (1014.0 mb)
Winds: from the WSW (240 degrees) at 14 MPH (12 knots; 6.2 m/s)
Visibility: 6 or more miles (10+ km)
Ceiling: at least 12,000 feet AGL
Clouds: few clouds at 3000 feet AGL
scattered clouds at 6000 feet AGL
Weather: no significant weather observed at this time

METAR text: RJAF 070200Z 17012KT 130V200 9999 FEW035 SCT060 10/M04 Q1014
Conditions at: RJAF (MATSUMOTO AIRPOR, JP) observed 0200 UTC 07 December 2022
Temperature: 10.0°C (50°F)
Dewpoint: -4.0°C (25°F) [RH = 37%]
Pressure (altimeter): 29.94 inches Hg (1014.0 mb)
Winds: from the S (170 degrees) at 14 MPH (12 knots; 6.2 m/s)
Visibility: 6 or more miles (10+ km)
Ceiling: at least 12,000 feet AGL
Clouds: few clouds at 3500 feet AGL
scattered clouds at 6000 feet AGL
Weather: no significant weather observed at this time

METAR text: RJAF 070100Z 16014KT 9999 FEW035 SCT050 08/M04 Q1015
Conditions at: RJAF (MATSUMOTO AIRPOR, JP) observed 0100 UTC 07 December 2022
Temperature: 8.0°C (46°F)
Dewpoint: -4.0°C (25°F) [RH = 42%]
Pressure (altimeter): 29.97 inches Hg (1015.0 mb)
Winds: from the SSE (160 degrees) at 16 MPH (14 knots; 7.2 m/s)
Visibility: 6 or more miles (10+ km)
Ceiling: at least 12,000 feet AGL
Clouds: few clouds at 3500 feet AGL
scattered clouds at 5000 feet AGL
Weather: no significant weather observed at this time

METAR text: RJAF 070000Z 17017KT 9999 FEW035 SCT050 07/M04 Q1015
Conditions at: RJAF (MATSUMOTO AIRPOR, JP) observed 0000 UTC 07 December 2022
Temperature: 7.0°C (45°F)
Dewpoint: -4.0°C (25°F) [RH = 45%]
Pressure (altimeter): 29.97 inches Hg (1015.0 mb)
Winds: from the S (170 degrees) at 20 MPH (17 knots; 8.7 m/s)
Visibility: 6 or more miles (10+ km)
Ceiling: at least 12,000 feet AGL
Clouds: few clouds at 3500 feet AGL
scattered clouds at 5000 feet AGL
Weather: no significant weather observed at this time

METAR text: RJAF 062330Z 15013KT 9999 VCSH FEW040 SCT060 06/M03 Q1015
Conditions at: RJAF (MATSUMOTO AIRPOR, JP) observed 2330 UTC 06 December 2022
Temperature: 6.0°C (43°F)
Dewpoint: -3.0°C (27°F) [RH = 52%]
Pressure (altimeter): 29.97 inches Hg (1015.0 mb)
Winds: from the SSE (150 degrees) at 15 MPH (13 knots; 6.7 m/s)
Visibility: 6 or more miles (10+ km)
Ceiling: at least 12,000 feet AGL
Clouds: few clouds at 4000 feet AGL
scattered clouds at 6000 feet AGL
Weather: VCSH  (showers in vicinity)

METAR text: RJAF 062310Z 15014KT 9999 FEW040 05/M03 Q1016 RMK 1CU040 A3000
Conditions at: RJAF (MATSUMOTO AIRPOR, JP) observed 2310 UTC 06 December 2022
Temperature: 5.0°C (41°F)
Dewpoint: -3.0°C (27°F) [RH = 56%]
Pressure (altimeter): 30.00 inches Hg (1016.0 mb)
Winds: from the SSE (150 degrees) at 16 MPH (14 knots; 7.2 m/s)
Visibility: 6 or more miles (10+ km)
Ceiling: at least 12,000 feet AGL
Clouds: few clouds at 4000 feet AGL
Weather: no significant weather observed at this time

METAR text: RJAF 060900Z 20009KT 9999 VCSH FEW040 04/M04 Q1012
Conditions at: RJAF (MATSUMOTO AIRPOR, JP) observed 0900 UTC 06 December 2022
Temperature: 4.0°C (39°F)
Dewpoint: -4.0°C (25°F) [RH = 56%]
Pressure (altimeter): 29.88 inches Hg (1012.0 mb)
Winds: from the SSW (200 degrees) at 10 MPH (9 knots; 4.6 m/s)
Visibility: 6 or more miles (10+ km)
Ceiling: at least 12,000 feet AGL
Clouds: few clouds at 4000 feet AGL
Weather: VCSH  (showers in vicinity)

METAR text: RJAF 060800Z 23011KT 9999 VCSH FEW050 SCT070 07/M04 Q1012
Conditions at: RJAF (MATSUMOTO AIRPOR, JP) observed 0800 UTC 06 December 2022
Temperature: 7.0°C (45°F)
Dewpoint: -4.0°C (25°F) [RH = 45%]
Pressure (altimeter): 29.88 inches Hg (1012.0 mb)
Winds: from the SW (230 degrees) at 13 MPH (11 knots; 5.7 m/s)
Visibility: 6 or more miles (10+ km)
Ceiling: at least 12,000 feet AGL
Clouds: few clouds at 5000 feet AGL
scattered clouds at 7000 feet AGL
Weather: VCSH  (showers in vicinity)

METAR text: RJAF 060700Z 22011KT 9999 VCSH FEW050 SCT060 08/M03 Q1011
Conditions at: RJAF (MATSUMOTO AIRPOR, JP) observed 0700 UTC 06 December 2022
Temperature: 8.0°C (46°F)
Dewpoint: -3.0°C (27°F) [RH = 46%]
Pressure (altimeter): 29.85 inches Hg (1011.0 mb)
Winds: from the SW (220 degrees) at 13 MPH (11 knots; 5.7 m/s)
Visibility: 6 or more miles (10+ km)
Ceiling: at least 12,000 feet AGL
Clouds: few clouds at 5000 feet AGL
scattered clouds at 6000 feet AGL
Weather: VCSH  (showers in vicinity)

METAR text: RJAF 060600Z 25011KT 220V280 9999 VCSH FEW050 SCT060 10/M04 Q1011
Conditions at: RJAF (MATSUMOTO AIRPOR, JP) observed 0600 UTC 06 December 2022
Temperature: 10.0°C (50°F)
Dewpoint: -4.0°C (25°F) [RH = 37%]
Pressure (altimeter): 29.85 inches Hg (1011.0 mb)
Winds: from the WSW (250 degrees) at 13 MPH (11 knots; 5.7 m/s)
Visibility: 6 or more miles (10+ km)
Ceiling: at least 12,000 feet AGL
Clouds: few clouds at 5000 feet AGL
scattered clouds at 6000 feet AGL
Weather: VCSH  (showers in vicinity)

METAR text: RJAF 060500Z 24011KT 200V270 9999 VCSH FEW040 SCT070 10/M05 Q1010
Conditions at: RJAF (MATSUMOTO AIRPOR, JP) observed 0500 UTC 06 December 2022
Temperature: 10.0°C (50°F)
Dewpoint: -5.0°C (23°F) [RH = 34%]
Pressure (altimeter): 29.82 inches Hg (1010.0 mb)
Winds: from the WSW (240 degrees) at 13 MPH (11 knots; 5.7 m/s)
Visibility: 6 or more miles (10+ km)
Ceiling: at least 12,000 feet AGL
Clouds: few clouds at 4000 feet AGL
scattered clouds at 7000 feet AGL
Weather: VCSH  (showers in vicinity)

METAR text: RJAF 060400Z 21015KT 9999 VCSH FEW040 SCT060 11/M04 Q1010
Conditions at: RJAF (MATSUMOTO AIRPOR, JP) observed 0400 UTC 06 December 2022
Temperature: 11.0°C (52°F)
Dewpoint: -4.0°C (25°F) [RH = 35%]
Pressure (altimeter): 29.82 inches Hg (1010.0 mb)
Winds: from the SSW (210 degrees) at 17 MPH (15 knots; 7.7 m/s)
Visibility: 6 or more miles (10+ km)
Ceiling: at least 12,000 feet AGL
Clouds: few clouds at 4000 feet AGL
scattered clouds at 6000 feet AGL
Weather: VCSH  (showers in vicinity)

METAR text: RJAF 060300Z 16017KT 9999 VCSH FEW040 SCT060 12/M01 Q1011
Conditions at: RJAF (MATSUMOTO AIRPOR, JP) observed 0300 UTC 06 December 2022
Temperature: 12.0°C (54°F)
Dewpoint: -1.0°C (30°F) [RH = 40%]
Pressure (altimeter): 29.85 inches Hg (1011.0 mb)
Winds: from the SSE (160 degrees) at 20 MPH (17 knots; 8.7 m/s)
Visibility: 6 or more miles (10+ km)
Ceiling: at least 12,000 feet AGL
Clouds: few clouds at 4000 feet AGL
scattered clouds at 6000 feet AGL
Weather: VCSH  (showers in vicinity)

METAR text: RJAF 060200Z 16017KT 9999 VCSH FEW030 SCT050 10/M01 Q1012
Conditions at: RJAF (MATSUMOTO AIRPOR, JP) observed 0200 UTC 06 December 2022
Temperature: 10.0°C (50°F)
Dewpoint: -1.0°C (30°F) [RH = 46%]
Pressure (altimeter): 29.88 inches Hg (1012.0 mb)
Winds: from the SSE (160 degrees) at 20 MPH (17 knots; 8.7 m/s)
Visibility: 6 or more miles (10+ km)
Ceiling: at least 12,000 feet AGL
Clouds: few clouds at 3000 feet AGL
scattered clouds at 5000 feet AGL
Weather: VCSH  (showers in vicinity)

METAR text: RJAF 060100Z 18019KT 9999 VCSH FEW030 SCT040 10/M00 Q1012
Conditions at: RJAF (MATSUMOTO AIRPOR, JP) observed 0100 UTC 06 December 2022
Temperature: 10.0°C (50°F)
Dewpoint: 0.0°C (32°F) [RH = 50%]
Pressure (altimeter): 29.88 inches Hg (1012.0 mb)
Winds: from the S (180 degrees) at 22 MPH (19 knots; 9.8 m/s)
Visibility: 6 or more miles (10+ km)
Ceiling: at least 12,000 feet AGL
Clouds: few clouds at 3000 feet AGL
scattered clouds at 4000 feet AGL
Weather: VCSH  (showers in vicinity)

METAR text: RJAF 060000Z 14013KT 100V170 9999 VCSH FEW025 08/02 Q1013
Conditions at: RJAF (MATSUMOTO AIRPOR, JP) observed 0000 UTC 06 December 2022
Temperature: 8.0°C (46°F)
Dewpoint: 2.0°C (36°F) [RH = 66%]
Pressure (altimeter): 29.91 inches Hg (1013.0 mb)
Winds: from the SE (140 degrees) at 15 MPH (13 knots; 6.7 m/s)
Visibility: 6 or more miles (10+ km)
Ceiling: at least 12,000 feet AGL
Clouds: few clouds at 2500 feet AGL
Weather: VCSH  (showers in vicinity)

METAR text: RJAF 052330Z 16011KT 120V180 9999 VCSH FEW020 06/02 Q1013
Conditions at: RJAF (MATSUMOTO AIRPOR, JP) observed 2330 UTC 05 December 2022
Temperature: 6.0°C (43°F)
Dewpoint: 2.0°C (36°F) [RH = 75%]
Pressure (altimeter): 29.91 inches Hg (1013.0 mb)
Winds: from the SSE (160 degrees) at 13 MPH (11 knots; 5.7 m/s)
Visibility: 6 or more miles (10+ km)
Ceiling: at least 12,000 feet AGL
Clouds: few clouds at 2000 feet AGL
Weather: VCSH  (showers in vicinity)

METAR text: RJAF 052310Z 14011KT 100V180 9999 VCSH FEW015 05/02 Q1013 RMK 1ST015 A2992
Conditions at: RJAF (MATSUMOTO AIRPOR, JP) observed 2310 UTC 05 December 2022
Temperature: 5.0°C (41°F)
Dewpoint: 2.0°C (36°F) [RH = 81%]
Pressure (altimeter): 29.91 inches Hg (1013.0 mb)
Winds: from the SE (140 degrees) at 13 MPH (11 knots; 5.7 m/s)
Visibility: 6 or more miles (10+ km)
Ceiling: at least 12,000 feet AGL
Clouds: few clouds at 1500 feet AGL
Weather: VCSH  (showers in vicinity)